createdAt,value
2023-04-27T00:01:01.076Z,4.18
2023-04-27T00:03:28.394Z,4.57
2023-04-27T00:05:55.321Z,3.67
2023-04-27T00:08:22.091Z,4.30
2023-04-27T00:10:48.582Z,3.30
2023-04-27T00:13:14.950Z,3.70
2023-04-27T00:15:41.654Z,3.30
2023-04-27T00:18:08.174Z,3.20
2023-04-27T00:20:34.754Z,3.95
2023-04-27T00:23:01.209Z,3.05
2023-04-27T00:25:27.824Z,3.40
2023-04-27T00:27:54.325Z,3.50
2023-04-27T00:30:20.820Z,3.70
2023-04-27T00:32:47.282Z,3.65
2023-04-27T00:35:13.746Z,3.58
2023-04-27T00:37:40.163Z,3.63
2023-04-27T00:40:07.902Z,3.45
2023-04-27T00:42:35.469Z,4.00
2023-04-27T00:45:02.401Z,4.45
2023-04-27T00:47:30.521Z,3.75
2023-04-27T00:49:57.147Z,3.85
2023-04-27T00:52:23.600Z,3.70
2023-04-27T00:54:52.216Z,3.65
2023-04-27T00:57:19.002Z,4.00
2023-04-27T00:59:46.120Z,4.63
2023-04-27T01:02:13.650Z,3.50
2023-04-27T01:04:41.013Z,3.60
2023-04-27T01:07:07.497Z,3.90
2023-04-27T01:09:33.961Z,3.83
2023-04-27T01:12:00.373Z,3.80
2023-04-27T01:14:26.799Z,3.95
2023-04-27T01:16:53.297Z,3.88
2023-04-27T01:19:19.790Z,4.03
2023-04-27T01:21:46.561Z,3.58
2023-04-27T01:24:12.981Z,4.05
2023-04-27T01:26:39.417Z,4.20
2023-04-27T01:29:06.206Z,3.63
2023-04-27T01:31:34.193Z,3.58
2023-04-27T01:34:00.639Z,3.95
2023-04-27T01:36:27.780Z,4.35
2023-04-27T01:38:54.206Z,3.47
2023-04-27T01:41:20.641Z,4.13
2023-04-27T01:43:47.106Z,3.97
2023-04-27T01:46:14.338Z,4.25
2023-04-27T01:48:41.351Z,3.90
2023-04-27T01:51:07.794Z,3.50
2023-04-27T01:53:46.461Z,3.42
2023-04-27T01:56:12.871Z,3.40
2023-04-27T01:58:45.242Z,4.18
2023-04-27T02:01:11.827Z,4.25
2023-04-27T02:03:38.465Z,3.78
2023-04-27T02:06:10.985Z,4.55
2023-04-27T02:08:37.429Z,4.88
2023-04-27T02:11:03.910Z,4.40
2023-04-27T02:13:42.349Z,4.75
2023-04-27T02:16:20.808Z,4.03
2023-04-27T02:18:47.676Z,5.18
2023-04-27T02:21:14.103Z,4.18
2023-04-27T02:23:46.359Z,3.55
2023-04-27T02:26:20.359Z,4.30
2023-04-27T02:29:55.928Z,3.85
2023-04-27T02:33:19.211Z,4.20
2023-04-27T02:36:48.172Z,3.85
2023-04-27T02:40:10.974Z,3.70
2023-04-27T02:43:52.376Z,4.07
2023-04-27T02:47:15.240Z,3.55
2023-04-27T02:50:56.391Z,2.60
2023-04-27T02:54:24.985Z,3.33
2023-04-27T02:57:47.853Z,3.60
2023-04-27T03:01:16.982Z,5.03
2023-04-27T03:04:39.767Z,4.10
2023-04-27T03:08:14.868Z,3.05
2023-04-27T03:11:37.717Z,3.17
2023-04-27T03:15:13.105Z,3.17
2023-04-27T03:18:35.960Z,3.50
2023-04-27T03:21:20.961Z,3.38
2023-04-27T03:23:47.436Z,4.03
2023-04-27T03:26:14.914Z,3.55
2023-04-27T03:28:42.228Z,3.95
2023-04-27T03:31:11.779Z,3.72
2023-04-27T03:33:38.301Z,3.85
2023-04-27T03:36:06.466Z,3.97
2023-04-27T03:38:33.660Z,3.25
2023-04-27T03:41:00.160Z,3.90
2023-04-27T03:43:27.120Z,3.03
2023-04-27T03:45:53.943Z,3.75
2023-04-27T03:48:20.738Z,3.60
2023-04-27T03:50:47.260Z,4.28
2023-04-27T03:53:14.267Z,3.88
2023-04-27T03:55:42.311Z,3.90
2023-04-27T03:58:10.330Z,4.07
2023-04-27T04:00:37.805Z,4.20
2023-04-27T04:03:05.689Z,3.83
2023-04-27T04:05:32.571Z,3.90
2023-04-27T04:07:58.999Z,3.65
2023-04-27T04:10:25.604Z,3.70
2023-04-27T04:12:52.884Z,3.25
2023-04-27T04:15:20.221Z,3.47
2023-04-27T04:17:47.539Z,4.43
2023-04-27T04:20:14.184Z,5.18
2023-04-27T04:22:40.597Z,4.53
2023-04-27T04:25:07.480Z,4.13
2023-04-27T04:27:33.932Z,3.95
2023-04-27T04:30:00.564Z,4.82
2023-04-27T04:32:31.348Z,5.15
2023-04-27T04:34:58.872Z,3.88
2023-04-27T04:37:27.673Z,3.85
2023-04-27T04:39:54.075Z,4.03
2023-04-27T04:42:20.758Z,4.28
2023-04-27T04:44:47.282Z,4.10
2023-04-27T04:47:13.720Z,4.50
2023-04-27T04:49:40.251Z,4.30
2023-04-27T04:52:06.762Z,3.65
2023-04-27T04:54:33.187Z,3.80
2023-04-27T04:57:00.926Z,3.95
2023-04-27T04:59:27.372Z,4.03
2023-04-27T05:01:56.811Z,3.55
2023-04-27T05:04:23.540Z,4.22
2023-04-27T05:06:50.187Z,4.60
2023-04-27T05:09:16.604Z,4.40
2023-04-27T05:11:49.085Z,5.05
2023-04-27T05:14:15.547Z,4.97
2023-04-27T05:16:42.129Z,5.05
2023-04-27T05:19:08.683Z,5.07
2023-04-27T05:21:35.251Z,4.13
2023-04-27T05:24:01.722Z,4.65
2023-04-27T05:26:28.415Z,4.63
2023-04-27T05:28:54.825Z,4.10
2023-04-27T05:31:28.936Z,3.63
2023-04-27T05:33:55.866Z,4.35
2023-04-27T05:36:22.372Z,5.75
2023-04-27T05:38:48.822Z,5.15
2023-04-27T05:41:15.540Z,6.68
2023-04-27T05:43:41.932Z,5.85
2023-04-27T05:46:08.627Z,5.40
2023-04-27T05:48:35.046Z,6.63
2023-04-27T05:51:02.762Z,6.00
2023-04-27T05:53:34.494Z,5.53
2023-04-27T05:56:01.239Z,5.13
2023-04-27T05:58:27.850Z,5.30
2023-04-27T06:00:54.811Z,4.38
2023-04-27T06:03:21.676Z,5.43
2023-04-27T06:05:55.350Z,5.95
2023-04-27T06:08:23.382Z,5.80
2023-04-27T06:10:53.086Z,5.82
2023-04-27T06:13:20.264Z,6.78
2023-04-27T06:15:47.458Z,5.15
2023-04-27T06:18:14.520Z,6.00
2023-04-27T06:20:41.922Z,7.03
2023-04-27T06:23:08.718Z,6.57
2023-04-27T06:25:37.398Z,6.07
2023-04-27T06:28:03.914Z,5.30
2023-04-27T06:30:30.353Z,5.78
2023-04-27T06:32:56.870Z,5.70
2023-04-27T06:35:23.410Z,6.97
2023-04-27T06:37:49.871Z,6.03
2023-04-27T06:40:16.342Z,5.90
2023-04-27T06:42:42.774Z,6.70
2023-04-27T06:45:09.523Z,6.40
2023-04-27T06:47:37.701Z,6.03
2023-04-27T06:50:04.386Z,6.78
2023-04-27T06:52:33.166Z,6.15
2023-04-27T06:54:59.619Z,6.00
2023-04-27T06:57:26.037Z,6.43
2023-04-27T06:59:52.444Z,6.95
2023-04-27T07:02:18.985Z,6.65
2023-04-27T07:04:45.780Z,7.28
2023-04-27T07:07:12.181Z,6.03
2023-04-27T07:09:38.731Z,6.97
2023-04-27T07:12:05.194Z,5.05
2023-04-27T07:14:33.498Z,6.63
2023-04-27T07:16:59.937Z,7.03
2023-04-27T07:19:26.340Z,6.68
2023-04-27T07:21:52.824Z,6.57
2023-04-27T07:24:20.181Z,6.63
2023-04-27T07:26:46.673Z,6.45
2023-04-27T07:29:26.133Z,6.13
2023-04-27T07:31:54.501Z,5.20
2023-04-27T07:34:21.022Z,7.07
2023-04-27T07:36:47.523Z,5.78
2023-04-27T07:39:14.678Z,6.57
2023-04-27T07:41:41.252Z,6.40
2023-04-27T07:44:07.623Z,5.25
2023-04-27T07:46:34.203Z,6.35
2023-04-27T07:49:01.197Z,6.80
2023-04-27T07:51:30.506Z,5.97
2023-04-27T07:53:56.886Z,6.97
2023-04-27T07:56:23.316Z,7.28
2023-04-27T07:58:49.731Z,5.93
2023-04-27T08:01:17.608Z,6.68
2023-04-27T08:03:45.469Z,6.57
2023-04-27T08:06:12.374Z,6.80
2023-04-27T08:08:38.960Z,6.60
2023-04-27T08:11:08.785Z,6.88
2023-04-27T08:13:35.350Z,6.50
2023-04-27T08:16:01.951Z,7.43
2023-04-27T08:18:28.465Z,7.28
2023-04-27T08:20:55.582Z,7.80
2023-04-27T08:23:22.020Z,6.18
2023-04-27T08:25:48.599Z,6.28
2023-04-27T08:28:15.435Z,6.53
2023-04-27T08:30:42.716Z,5.57
2023-04-27T08:33:09.211Z,7.05
2023-04-27T08:35:35.653Z,6.03
2023-04-27T08:38:02.151Z,5.97
2023-04-27T08:40:28.647Z,5.13
2023-04-27T08:42:59.350Z,6.03
2023-04-27T08:45:27.122Z,5.88
2023-04-27T08:47:53.949Z,11.50
2023-04-27T08:50:20.499Z,6.82
2023-04-27T08:52:48.028Z,6.88
2023-04-27T08:55:16.639Z,6.50
2023-04-27T08:57:57.286Z,5.95
2023-04-27T09:00:25.176Z,5.28
2023-04-27T09:02:51.774Z,7.00
2023-04-27T09:05:23.062Z,5.10
2023-04-27T09:08:15.795Z,5.07
2023-04-27T09:10:50.111Z,6.15
2023-04-27T09:13:17.177Z,5.85
2023-04-27T09:15:47.849Z,5.60
2023-04-27T09:18:21.110Z,5.80
2023-04-27T09:20:49.699Z,6.22
2023-04-27T09:23:33.367Z,4.90
2023-04-27T09:26:02.287Z,4.43
2023-04-27T09:28:30.915Z,5.60
2023-04-27T09:31:04.126Z,6.00
2023-04-27T09:33:32.794Z,5.30
2023-04-27T09:36:01.396Z,6.40
2023-04-27T09:38:28.032Z,6.35
2023-04-27T09:40:55.112Z,5.20
2023-04-27T09:43:22.037Z,5.22
2023-04-27T09:45:49.894Z,5.88
2023-04-27T09:48:17.405Z,5.95
2023-04-27T09:50:45.551Z,5.05
2023-04-27T09:53:14.530Z,3.92
2023-04-27T09:55:51.724Z,5.32
2023-04-27T09:58:39.899Z,5.95
2023-04-27T10:01:31.761Z,6.05
2023-04-27T10:04:20.548Z,6.18
2023-04-27T10:09:26.689Z,5.50
2023-04-27T10:11:54.871Z,5.25
2023-04-27T10:14:23.319Z,5.85
2023-04-27T10:16:51.929Z,5.53
2023-04-27T10:19:19.539Z,4.60
2023-04-27T10:21:52.879Z,4.47
2023-04-27T10:24:19.363Z,5.45
2023-04-27T10:26:47.857Z,5.32
2023-04-27T10:29:16.469Z,5.07
2023-04-27T10:31:48.366Z,6.53
2023-04-27T10:34:21.367Z,5.30
2023-04-27T10:36:48.060Z,5.78
2023-04-27T10:39:18.618Z,6.30
2023-04-27T10:41:52.723Z,5.70
2023-04-27T10:44:28.455Z,4.95
2023-04-27T10:46:57.183Z,5.45
2023-04-27T10:49:23.779Z,5.13
2023-04-27T10:51:51.346Z,6.07
2023-04-27T10:54:18.731Z,6.05
2023-04-27T10:56:45.620Z,5.13
2023-04-27T10:59:12.552Z,5.10
2023-04-27T11:01:40.228Z,5.50
2023-04-27T11:04:06.854Z,5.25
2023-04-27T11:06:42.288Z,5.93
2023-04-27T11:09:10.654Z,6.43
2023-04-27T11:11:37.360Z,7.20
2023-04-27T11:14:03.847Z,6.93
2023-04-27T11:16:32.914Z,6.05
2023-04-27T11:19:05.203Z,5.47
2023-04-27T11:21:32.363Z,5.85
2023-04-27T11:24:08.594Z,5.30
2023-04-27T11:26:34.997Z,5.65
2023-04-27T11:29:05.116Z,5.72
2023-04-27T11:31:51.451Z,8.07
2023-04-27T11:34:23.102Z,7.82
2023-04-27T11:37:14.345Z,5.85
2023-04-27T11:39:46.658Z,6.47
2023-04-27T11:42:24.402Z,4.95
2023-04-27T11:44:54.703Z,6.00
2023-04-27T11:49:50.545Z,7.57
2023-04-27T11:52:17.593Z,8.75
2023-04-27T11:54:48.544Z,8.18
2023-04-27T11:57:15.153Z,7.50
2023-04-27T11:59:41.938Z,8.05
2023-04-27T12:02:09.236Z,8.68
2023-04-27T12:04:36.178Z,7.80
2023-04-27T12:07:03.860Z,8.25
2023-04-27T12:09:30.338Z,8.82
2023-04-27T12:11:56.772Z,7.95
2023-04-27T12:14:24.673Z,7.97
2023-04-27T12:16:51.759Z,7.85
2023-04-27T12:19:18.353Z,8.00
2023-04-27T12:21:45.388Z,8.30
2023-04-27T12:24:12.441Z,6.05
2023-04-27T12:26:39.762Z,6.63
2023-04-27T12:29:07.093Z,6.03
2023-04-27T12:31:34.147Z,6.78
2023-04-27T12:34:01.017Z,7.80
2023-04-27T12:36:27.413Z,7.40
2023-04-27T12:38:58.336Z,7.25
2023-04-27T12:41:25.158Z,8.10
2023-04-27T12:43:51.929Z,6.38
2023-04-27T12:46:18.690Z,5.53
2023-04-27T12:48:45.182Z,7.60
2023-04-27T12:51:11.687Z,8.65
2023-04-27T12:53:39.358Z,8.27
2023-04-27T12:56:06.132Z,7.20
2023-04-27T12:58:32.658Z,7.32
2023-04-27T13:00:59.163Z,8.35
2023-04-27T13:03:25.806Z,8.70
2023-04-27T13:05:52.314Z,7.07
2023-04-27T13:08:18.857Z,8.13
2023-04-27T13:10:45.378Z,8.55
2023-04-27T13:13:11.909Z,9.32
2023-04-27T13:15:38.752Z,7.78
2023-04-27T13:18:06.583Z,7.63
2023-04-27T13:20:48.488Z,8.45
2023-04-27T13:23:14.926Z,8.50
2023-04-27T13:25:41.572Z,9.05
2023-04-27T13:28:08.167Z,8.98
2023-04-27T13:30:34.725Z,9.85
2023-04-27T13:33:14.166Z,8.80
2023-04-27T13:35:47.999Z,6.80
2023-04-27T13:38:14.446Z,7.78
2023-04-27T13:40:40.979Z,7.55
2023-04-27T13:43:07.728Z,7.90
2023-04-27T13:45:34.132Z,7.85
2023-04-27T13:48:00.662Z,5.72
2023-04-27T13:50:27.157Z,6.60
2023-04-27T13:52:53.586Z,5.25
2023-04-27T13:55:20.043Z,6.05
2023-04-27T13:57:46.507Z,7.10
2023-04-27T14:00:14.396Z,7.65
2023-04-27T14:02:41.327Z,7.65
2023-04-27T14:05:08.380Z,7.97
2023-04-27T14:07:35.710Z,8.98
2023-04-27T14:10:05.793Z,7.30
2023-04-27T14:12:32.644Z,7.07
2023-04-27T14:14:59.435Z,5.78
2023-04-27T14:17:25.900Z,7.53
2023-04-27T14:19:52.327Z,7.70
2023-04-27T14:22:18.790Z,6.90
2023-04-27T14:24:45.340Z,8.70
2023-04-27T14:27:11.799Z,7.72
2023-04-27T14:29:38.397Z,6.50
2023-04-27T14:32:06.351Z,8.52
2023-04-27T14:34:32.999Z,7.88
2023-04-27T14:36:59.467Z,8.57
2023-04-27T14:39:27.976Z,5.90
2023-04-27T14:41:54.530Z,8.20
2023-04-27T14:44:21.062Z,8.40
2023-04-27T14:46:47.545Z,8.77
2023-04-27T14:49:14.387Z,7.78
2023-04-27T14:51:43.349Z,8.05
2023-04-27T14:54:10.104Z,8.02
2023-04-27T14:56:36.664Z,5.90
2023-04-27T14:59:03.231Z,7.93
2023-04-27T15:01:29.851Z,8.98
2023-04-27T15:03:57.940Z,8.63
2023-04-27T15:06:28.144Z,7.88
2023-04-27T15:08:55.611Z,8.75
2023-04-27T15:11:22.300Z,7.47
2023-04-27T15:13:49.135Z,7.10
2023-04-27T15:16:15.715Z,8.23
2023-04-27T15:18:42.292Z,8.80
2023-04-27T15:21:08.724Z,7.80
2023-04-27T15:23:37.132Z,8.05
2023-04-27T15:26:03.663Z,7.30
2023-04-27T15:28:30.785Z,7.10
2023-04-27T15:30:57.372Z,6.25
2023-04-27T15:33:23.944Z,7.22
2023-04-27T15:35:50.710Z,8.00
2023-04-27T15:38:17.888Z,7.38
2023-04-27T15:40:45.406Z,8.43
2023-04-27T15:43:11.985Z,7.57
2023-04-27T15:45:38.740Z,6.82
2023-04-27T15:48:05.334Z,7.28
2023-04-27T15:50:32.418Z,6.22
2023-04-27T15:52:58.930Z,7.20
2023-04-27T15:55:25.431Z,8.30
2023-04-27T15:57:51.852Z,7.15
2023-04-27T16:00:21.938Z,6.47
2023-04-27T16:02:48.887Z,6.97
2023-04-27T16:05:16.261Z,6.82
2023-04-27T16:07:44.425Z,7.93
2023-04-27T16:10:11.677Z,6.20
2023-04-27T16:12:38.576Z,6.72
2023-04-27T16:15:05.856Z,5.10
2023-04-27T16:17:41.134Z,7.40
2023-04-27T16:20:08.287Z,7.97
2023-04-27T16:22:38.435Z,7.30
2023-04-27T16:25:10.676Z,6.97
2023-04-27T16:27:38.355Z,6.22
2023-04-27T16:30:06.887Z,7.25
2023-04-27T16:32:35.405Z,6.88
2023-04-27T16:35:02.446Z,6.75
2023-04-27T16:37:28.924Z,6.93
2023-04-27T16:39:59.088Z,5.70
2023-04-27T16:42:26.010Z,6.63
2023-04-27T16:44:52.649Z,6.97
2023-04-27T16:47:19.114Z,6.70
2023-04-27T16:49:45.692Z,5.68
2023-04-27T16:52:12.152Z,5.15
2023-04-27T16:54:38.624Z,5.97
2023-04-27T16:57:05.029Z,5.60
2023-04-27T16:59:31.490Z,4.75
2023-04-27T17:02:01.712Z,5.65
2023-04-27T17:04:39.950Z,5.35
2023-04-27T17:07:09.574Z,4.78
2023-04-27T17:09:37.116Z,5.20
2023-04-27T17:12:08.160Z,4.85
2023-04-27T17:14:34.577Z,5.20
2023-04-27T17:17:01.049Z,5.28
2023-04-27T17:19:28.419Z,4.38
2023-04-27T17:21:57.382Z,4.70
2023-04-27T17:24:24.658Z,4.72
2023-04-27T17:26:51.503Z,3.90
2023-04-27T17:29:18.001Z,5.07
2023-04-27T17:31:44.478Z,4.53
2023-04-27T17:34:11.655Z,4.32
2023-04-27T17:36:38.179Z,5.10
2023-04-27T17:39:04.808Z,3.42
2023-04-27T17:41:32.839Z,4.57
2023-04-27T17:44:00.237Z,4.63
2023-04-27T17:46:26.709Z,4.70
2023-04-27T17:48:53.134Z,4.50
2023-04-27T17:51:19.510Z,4.72
2023-04-27T17:53:45.965Z,4.45
2023-04-27T17:56:12.446Z,4.55
2023-04-27T17:58:38.935Z,4.93
2023-04-27T18:01:09.031Z,4.18
2023-04-27T18:03:36.373Z,4.47
2023-04-27T18:06:02.871Z,3.83
2023-04-27T18:08:29.313Z,4.35
2023-04-27T18:10:55.722Z,3.88
2023-04-27T18:13:22.208Z,4.40
2023-04-27T18:15:48.664Z,4.30
2023-04-27T18:18:19.918Z,4.53
2023-04-27T18:20:47.635Z,3.42
2023-04-27T18:23:14.755Z,5.13
2023-04-27T18:25:41.208Z,4.40
2023-04-27T18:28:07.684Z,5.15
2023-04-27T18:30:34.162Z,4.22
2023-04-27T18:33:00.741Z,4.50
2023-04-27T18:35:27.261Z,4.75
2023-04-27T18:37:53.678Z,5.25
2023-04-27T18:40:21.630Z,4.53
2023-04-27T18:42:48.369Z,5.15
2023-04-27T18:45:15.762Z,4.60
2023-04-27T18:47:42.367Z,5.00
2023-04-27T18:50:10.287Z,4.68
2023-04-27T18:52:36.732Z,4.03
2023-04-27T18:55:03.832Z,4.88
2023-04-27T18:57:30.288Z,4.43
2023-04-27T18:59:56.713Z,5.10
2023-04-27T19:02:25.137Z,4.32
2023-04-27T19:05:01.511Z,5.00
2023-04-27T19:07:37.133Z,4.60
2023-04-27T19:10:04.038Z,3.90
2023-04-27T19:12:31.335Z,4.28
2023-04-27T19:14:57.784Z,3.95
2023-04-27T19:17:24.349Z,4.32
2023-04-27T19:19:51.075Z,4.05
2023-04-27T19:22:17.654Z,4.82
2023-04-27T19:24:44.073Z,4.70
2023-04-27T19:27:11.761Z,4.40
2023-04-27T19:29:51.396Z,4.00
2023-04-27T19:32:18.057Z,3.83
2023-04-27T19:34:44.615Z,4.50
2023-04-27T19:37:11.087Z,3.70
2023-04-27T19:39:38.566Z,4.15
2023-04-27T19:42:05.263Z,4.47
2023-04-27T19:44:31.764Z,3.90
2023-04-27T19:46:59.576Z,4.10
2023-04-27T19:49:25.978Z,4.20
2023-04-27T19:51:52.371Z,5.18
2023-04-27T19:54:18.935Z,4.80
2023-04-27T19:56:45.438Z,4.05
2023-04-27T19:59:12.513Z,4.20
2023-04-27T20:01:38.928Z,4.95
2023-04-27T20:05:20.399Z,4.72
2023-04-27T20:08:43.609Z,3.83
2023-04-27T20:12:06.782Z,4.93
2023-04-27T20:15:42.468Z,5.10
2023-04-27T20:22:51.804Z,3.70
2023-04-27T20:26:15.069Z,4.45
2023-04-27T20:29:37.767Z,4.70
2023-04-27T20:33:00.619Z,3.33
2023-04-27T20:36:35.762Z,4.20
2023-04-27T20:39:58.697Z,3.50
2023-04-27T20:43:34.054Z,4.03
2023-04-27T20:47:09.650Z,4.00
2023-04-27T20:50:32.629Z,3.88
2023-04-27T20:53:55.506Z,3.40
2023-04-27T20:57:30.561Z,3.33
2023-04-27T21:00:53.499Z,3.30
2023-04-27T21:04:16.578Z,4.03
2023-04-27T21:07:51.841Z,4.22
2023-04-27T21:11:17.377Z,4.13
2023-04-27T21:14:40.905Z,4.32
2023-04-27T21:18:03.656Z,4.57
2023-04-27T21:21:26.537Z,4.10
2023-04-27T21:24:49.324Z,5.13
2023-04-27T21:28:12.217Z,4.07
2023-04-27T21:31:35.103Z,4.03
2023-04-27T21:34:58.264Z,3.63
2023-04-27T21:38:27.391Z,4.18
2023-04-27T21:41:50.364Z,3.33
2023-04-27T21:45:12.929Z,4.00
2023-04-27T21:48:35.569Z,3.90
2023-04-27T21:51:26.403Z,4.75
2023-04-27T21:54:23.179Z,4.97
2023-04-27T21:57:26.950Z,4.50
2023-04-27T22:00:37.252Z,4.15
2023-04-27T22:03:22.599Z,5.18
2023-04-27T22:06:14.226Z,5.28
2023-04-27T22:08:46.657Z,5.15
2023-04-27T22:11:25.006Z,5.25
2023-04-27T22:13:51.490Z,4.85
2023-04-27T22:16:18.378Z,4.45
2023-04-27T22:19:02.897Z,5.40
2023-04-27T22:21:29.368Z,5.20
2023-04-27T22:23:55.846Z,5.35
2023-04-27T22:26:22.303Z,6.35
2023-04-27T22:28:48.777Z,4.70
2023-04-27T22:31:15.303Z,5.55
2023-04-27T22:33:41.853Z,6.03
2023-04-27T22:36:08.514Z,5.65
2023-04-27T22:38:35.055Z,6.07
2023-04-27T22:41:01.498Z,5.95
2023-04-27T22:43:27.930Z,5.05
2023-04-27T22:45:54.349Z,4.60
2023-04-27T22:48:21.159Z,4.30
2023-04-27T22:50:47.601Z,3.97
2023-04-27T22:53:14.054Z,4.25
2023-04-27T22:55:40.664Z,5.35
2023-04-27T22:58:07.043Z,4.97
2023-04-27T23:00:33.554Z,5.45
2023-04-27T23:03:00.174Z,5.70
2023-04-27T23:05:27.202Z,5.22
2023-04-27T23:07:53.637Z,5.28
2023-04-27T23:10:20.071Z,4.75
2023-04-27T23:12:46.586Z,5.15
2023-04-27T23:15:13.179Z,5.38
2023-04-27T23:17:39.695Z,5.65
2023-04-27T23:20:11.117Z,5.55
2023-04-27T23:22:43.884Z,5.20
2023-04-27T23:25:11.265Z,5.63
2023-04-27T23:27:37.946Z,5.50
2023-04-27T23:30:06.915Z,5.53
2023-04-27T23:32:34.861Z,5.80
2023-04-27T23:35:01.288Z,5.30
2023-04-27T23:37:27.717Z,5.50
2023-04-27T23:39:54.140Z,5.85
2023-04-27T23:42:20.537Z,5.85
2023-04-27T23:44:47.039Z,6.55
2023-04-27T23:47:13.479Z,6.00
2023-04-27T23:49:44.083Z,5.95
2023-04-27T23:54:37.840Z,4.30
2023-04-27T23:57:04.201Z,4.43
2023-04-27T23:59:34.947Z,3.55
